Main page
METAR-TAF:

METAR-TAF

Airports :

Rapid City Regional Airport

Rapid City, South Dakota, United States

latitude: 44-02-44N, longitude: 103-03-14W, elevation: 3201 ft

Current weather observation

The report was made 25 minutes ago, at 01:52 UTC
Wind 3 mph from the Northeast
Temperature 68°F
Humidity 35%
Pressure 30.09 in. Hg
Visibility: 10 miles
Clear sky

METAR: KRAP 150152Z 05003KT 10SM CLR 20/04 A3009 RMK AO2 SLP173 T02000044

Time: 20:17 (02:17 UTC)

Forecast

The report was made 1 hour and 33 minutes ago, at 00:44 UTC
Forecast valid from 15 at 01 UTC to 15 at 24 UTC
Wind 6 mph from variable directions
Visibility: 6 miles
Clear sky

TAF: KRAP 150044Z 1501/1524 VRB05KT P6SM SKC

Weather observations and forecasts of more than 4000 airports (METAR and TAF reports).

The available stations are represented by yellow and red dots on the map.

Hover mouse over dot to see the name of the station.

Then click to see weather observations and forecasts.

To change the map : click on the green buttons with a black cross to zoom in, on the green button with a dash to zoom out, or on the green arrows for adjacent maps.


METAR-TAF: